MET6114 - New York to London Heathrow

Boeing 777-200LR
G-FLUK
6 hrs 45 mins
2994 nm
Fly UK Codeshare - M | TU | TH | SA

Departure

Departing from
New York (JFK)
Departure gate
Ramp
Scheduled Departure
GMT 0755
Local 0255
METAR KJFK 221351Z 02008KT 2SM BR BKN004 OVC016 08/08 A2973 RMK AO2 SLP066 T00780078 $
TAF KJFK 221237Z 2213/2318 VRB03KT 1SM BR OVC003 FM221400 08005KT 2SM BR OVC005 FM221600 06008KT 4SM BR SCT006 OVC012 FM222300 07011G17KT 5SM BR OVC010 FM230300 06015G25KT 6SM BR OVC010 FM231200 06024G34KT 5SM -RA BR OVC010 FM231500 06029G45KT 3SM RA BR OVC010
  • No charts available

Arrival

Arriving at
London Heathrow (LHR)
Arrival gate
Terminal 3
Scheduled Arrival
GMT 1440
Local 1440
METAR EGLL 221350Z AUTO VRB02KT 7000 NCD 06/01 Q1027 NOSIG
TAF TAF EGLL 221058Z 2212/2318 VRB03KT 6000 FEW025 TEMPO 2212/2215 4800 HZ PROB30 TEMPO 2214/2217 9999 BECMG 2217/2220 4500 BR PROB30 2300/2302 0500 FZFG BKN000 PROB40 2302/2312 0200 FZFG VV/// PROB30 TEMPO 2312/2318 0500 FG BKN001

Route Map

Return Flights

MET6113 (Operated by Fly UK)
Boeing 777-200LR
2300 GMT

Popularity

Hub Current Bids PiReps this month Total PiReps
KMCI 0 0 0
KLAX 0 0 1
KBOS 0 0 0